sensor_id;sensor_type;location;lat;lon;timestamp;P1;durP1;ratioP1;P2;durP2;ratioP2
71298;SDS011;59083;47.974;21.722;2023-02-04T00:01:26;30.98;;;11.80;;
71298;SDS011;59083;47.974;21.722;2023-02-04T00:04:27;26.87;;;11.63;;
71298;SDS011;59083;47.974;21.722;2023-02-04T00:07:28;32.00;;;13.20;;
71298;SDS011;59083;47.974;21.722;2023-02-04T00:10:30;31.67;;;12.40;;
71298;SDS011;59083;47.974;21.722;2023-02-04T00:13:31;26.45;;;11.63;;
71298;SDS011;59083;47.974;21.722;2023-02-04T00:16:32;25.40;;;10.15;;
71298;SDS011;59083;47.974;21.722;2023-02-04T00:19:33;25.57;;;10.60;;
71298;SDS011;59083;47.974;21.722;2023-02-04T00:22:34;23.93;;;10.20;;
71298;SDS011;59083;47.974;21.722;2023-02-04T00:25:36;26.73;;;10.57;;
71298;SDS011;59083;47.974;21.722;2023-02-04T00:28:37;24.37;;;10.60;;
71298;SDS011;59083;47.974;21.722;2023-02-04T00:31:38;23.05;;;10.48;;
71298;SDS011;59083;47.974;21.722;2023-02-04T00:34:39;27.10;;;10.47;;
71298;SDS011;59083;47.974;21.722;2023-02-04T00:37:41;24.10;;;10.53;;
71298;SDS011;59083;47.974;21.722;2023-02-04T00:40:42;26.52;;;10.93;;
71298;SDS011;59083;47.974;21.722;2023-02-04T00:43:44;28.20;;;10.18;;
71298;SDS011;59083;47.974;21.722;2023-02-04T00:46:45;26.60;;;10.57;;
71298;SDS011;59083;47.974;21.722;2023-02-04T00:49:48;28.10;;;10.87;;
71298;SDS011;59083;47.974;21.722;2023-02-04T00:52:50;27.43;;;9.87;;
71298;SDS011;59083;47.974;21.722;2023-02-04T00:55:52;24.23;;;9.95;;
71298;SDS011;59083;47.974;21.722;2023-02-04T00:58:53;25.80;;;10.07;;
71298;SDS011;59083;47.974;21.722;2023-02-04T01:01:54;21.77;;;9.82;;
71298;SDS011;59083;47.974;21.722;2023-02-04T01:04:55;26.57;;;10.20;;
71298;SDS011;59083;47.974;21.722;2023-02-04T01:07:57;28.53;;;11.30;;
71298;SDS011;59083;47.974;21.722;2023-02-04T01:10:59;27.27;;;11.43;;
71298;SDS011;59083;47.974;21.722;2023-02-04T01:14:01;26.92;;;10.90;;
71298;SDS011;59083;47.974;21.722;2023-02-04T01:17:02;26.37;;;10.65;;
71298;SDS011;59083;47.974;21.722;2023-02-04T01:20:03;27.17;;;11.27;;
71298;SDS011;59083;47.974;21.722;2023-02-04T01:23:05;32.93;;;10.43;;
71298;SDS011;59083;47.974;21.722;2023-02-04T01:26:06;30.90;;;11.23;;
71298;SDS011;59083;47.974;21.722;2023-02-04T01:29:07;31.62;;;11.23;;
71298;SDS011;59083;47.974;21.722;2023-02-04T01:32:09;35.58;;;10.15;;
71298;SDS011;59083;47.974;21.722;2023-02-04T01:35:10;35.77;;;10.77;;
71298;SDS011;59083;47.974;21.722;2023-02-04T01:38:12;32.07;;;10.90;;
71298;SDS011;59083;47.974;21.722;2023-02-04T01:41:14;50.65;;;9.88;;
71298;SDS011;59083;47.974;21.722;2023-02-04T01:44:15;37.20;;;9.93;;
71298;SDS011;59083;47.974;21.722;2023-02-04T01:47:17;45.47;;;10.18;;
71298;SDS011;59083;47.974;21.722;2023-02-04T01:50:19;49.63;;;10.80;;
71298;SDS011;59083;47.974;21.722;2023-02-04T01:53:22;44.23;;;10.53;;
71298;SDS011;59083;47.974;21.722;2023-02-04T01:56:25;76.50;;;10.85;;
71298;SDS011;59083;47.974;21.722;2023-02-04T01:59:29;65.47;;;9.63;;
71298;SDS011;59083;47.974;21.722;2023-02-04T02:02:44;78.05;;;11.25;;
71298;SDS011;59083;47.974;21.722;2023-02-04T02:05:48;58.20;;;9.37;;
71298;SDS011;59083;47.974;21.722;2023-02-04T02:08:52;52.33;;;10.80;;
71298;SDS011;59083;47.974;21.722;2023-02-04T02:11:53;80.25;;;10.43;;
71298;SDS011;59083;47.974;21.722;2023-02-04T02:14:54;32.75;;;9.68;;
71298;SDS011;59083;47.974;21.722;2023-02-04T02:17:56;42.60;;;11.07;;
71298;SDS011;59083;47.974;21.722;2023-02-04T02:20:58;82.17;;;10.27;;
71298;SDS011;59083;47.974;21.722;2023-02-04T02:24:17;40.77;;;11.63;;
71298;SDS011;59083;47.974;21.722;2023-02-04T02:27:22;40.28;;;11.30;;
71298;SDS011;59083;47.974;21.722;2023-02-04T02:30:24;35.47;;;11.23;;
71298;SDS011;59083;47.974;21.722;2023-02-04T02:33:27;40.30;;;11.02;;
71298;SDS011;59083;47.974;21.722;2023-02-04T02:36:29;52.80;;;12.17;;
71298;SDS011;59083;47.974;21.722;2023-02-04T02:39:30;36.43;;;11.33;;
71298;SDS011;59083;47.974;21.722;2023-02-04T02:42:33;32.13;;;10.82;;
71298;SDS011;59083;47.974;21.722;2023-02-04T02:45:35;30.85;;;11.40;;
71298;SDS011;59083;47.974;21.722;2023-02-04T02:48:36;33.95;;;10.20;;
71298;SDS011;59083;47.974;21.722;2023-02-04T02:51:37;35.23;;;10.40;;
71298;SDS011;59083;47.974;21.722;2023-02-04T02:54:39;31.43;;;10.20;;
71298;SDS011;59083;47.974;21.722;2023-02-04T02:57:41;32.58;;;10.82;;
71298;SDS011;59083;47.974;21.722;2023-02-04T03:00:42;28.73;;;10.90;;
71298;SDS011;59083;47.974;21.722;2023-02-04T03:03:45;35.08;;;10.32;;
71298;SDS011;59083;47.974;21.722;2023-02-04T03:06:50;28.40;;;10.60;;
71298;SDS011;59083;47.974;21.722;2023-02-04T03:09:53;25.83;;;10.13;;
71298;SDS011;59083;47.974;21.722;2023-02-04T03:12:54;24.50;;;10.38;;
71298;SDS011;59083;47.974;21.722;2023-02-04T03:15:56;25.23;;;10.63;;
71298;SDS011;59083;47.974;21.722;2023-02-04T03:18:58;33.53;;;10.52;;
71298;SDS011;59083;47.974;21.722;2023-02-04T03:22:00;29.80;;;10.30;;
71298;SDS011;59083;47.974;21.722;2023-02-04T03:25:04;29.70;;;11.07;;
71298;SDS011;59083;47.974;21.722;2023-02-04T03:28:05;27.50;;;11.20;;
71298;SDS011;59083;47.974;21.722;2023-02-04T03:31:07;30.05;;;11.35;;
71298;SDS011;59083;47.974;21.722;2023-02-04T03:34:08;29.27;;;11.70;;
71298;SDS011;59083;47.974;21.722;2023-02-04T03:37:09;24.27;;;10.20;;
71298;SDS011;59083;47.974;21.722;2023-02-04T03:40:11;28.20;;;11.40;;
71298;SDS011;59083;47.974;21.722;2023-02-04T03:43:12;26.80;;;11.32;;
71298;SDS011;59083;47.974;21.722;2023-02-04T03:46:13;24.55;;;10.07;;
71298;SDS011;59083;47.974;21.722;2023-02-04T03:49:15;25.45;;;10.98;;
71298;SDS011;59083;47.974;21.722;2023-02-04T03:52:16;33.27;;;10.90;;
71298;SDS011;59083;47.974;21.722;2023-02-04T03:55:17;30.43;;;11.97;;
71298;SDS011;59083;47.974;21.722;2023-02-04T03:58:18;30.02;;;11.00;;
71298;SDS011;59083;47.974;21.722;2023-02-04T04:01:19;24.80;;;10.73;;
71298;SDS011;59083;47.974;21.722;2023-02-04T04:04:21;25.45;;;9.93;;
71298;SDS011;59083;47.974;21.722;2023-02-04T04:07:22;25.50;;;10.73;;
71298;SDS011;59083;47.974;21.722;2023-02-04T04:10:23;25.60;;;10.80;;
71298;SDS011;59083;47.974;21.722;2023-02-04T04:13:25;27.52;;;11.48;;
71298;SDS011;59083;47.974;21.722;2023-02-04T04:16:26;29.95;;;11.82;;
71298;SDS011;59083;47.974;21.722;2023-02-04T04:19:28;23.77;;;10.85;;
71298;SDS011;59083;47.974;21.722;2023-02-04T04:22:31;26.20;;;10.97;;
71298;SDS011;59083;47.974;21.722;2023-02-04T04:25:33;24.90;;;10.87;;
71298;SDS011;59083;47.974;21.722;2023-02-04T04:28:35;25.37;;;10.43;;
71298;SDS011;59083;47.974;21.722;2023-02-04T04:31:36;23.90;;;10.00;;
71298;SDS011;59083;47.974;21.722;2023-02-04T04:34:37;23.40;;;10.85;;
71298;SDS011;59083;47.974;21.722;2023-02-04T04:37:38;22.30;;;10.33;;
71298;SDS011;59083;47.974;21.722;2023-02-04T04:40:40;21.87;;;9.53;;
71298;SDS011;59083;47.974;21.722;2023-02-04T04:43:41;21.90;;;10.18;;
71298;SDS011;59083;47.974;21.722;2023-02-04T04:46:42;20.85;;;9.70;;
71298;SDS011;59083;47.974;21.722;2023-02-04T04:49:43;25.50;;;10.93;;
71298;SDS011;59083;47.974;21.722;2023-02-04T04:52:44;27.67;;;11.47;;
71298;SDS011;59083;47.974;21.722;2023-02-04T04:55:46;24.93;;;10.77;;
71298;SDS011;59083;47.974;21.722;2023-02-04T04:58:47;29.87;;;11.88;;
71298;SDS011;59083;47.974;21.722;2023-02-04T05:01:48;25.10;;;11.30;;
71298;SDS011;59083;47.974;21.722;2023-02-04T05:04:49;26.87;;;12.77;;
71298;SDS011;59083;47.974;21.722;2023-02-04T05:07:50;25.97;;;11.63;;
71298;SDS011;59083;47.974;21.722;2023-02-04T05:10:53;23.13;;;10.63;;
71298;SDS011;59083;47.974;21.722;2023-02-04T05:13:54;26.65;;;11.00;;
71298;SDS011;59083;47.974;21.722;2023-02-04T05:16:55;23.67;;;10.27;;
71298;SDS011;59083;47.974;21.722;2023-02-04T05:19:56;21.77;;;9.60;;
71298;SDS011;59083;47.974;21.722;2023-02-04T05:22:58;19.10;;;9.37;;
71298;SDS011;59083;47.974;21.722;2023-02-04T05:26:00;21.83;;;10.67;;
71298;SDS011;59083;47.974;21.722;2023-02-04T05:29:02;18.25;;;9.18;;
71298;SDS011;59083;47.974;21.722;2023-02-04T05:32:03;22.77;;;10.23;;
71298;SDS011;59083;47.974;21.722;2023-02-04T05:35:05;22.23;;;9.95;;
71298;SDS011;59083;47.974;21.722;2023-02-04T05:38:06;23.40;;;10.87;;
71298;SDS011;59083;47.974;21.722;2023-02-04T05:41:07;20.07;;;10.20;;
71298;SDS011;59083;47.974;21.722;2023-02-04T05:44:09;21.60;;;10.35;;
71298;SDS011;59083;47.974;21.722;2023-02-04T05:47:10;22.35;;;10.30;;
71298;SDS011;59083;47.974;21.722;2023-02-04T05:50:11;20.65;;;9.80;;
71298;SDS011;59083;47.974;21.722;2023-02-04T05:53:12;24.27;;;10.70;;
71298;SDS011;59083;47.974;21.722;2023-02-04T05:56:14;20.93;;;10.17;;
71298;SDS011;59083;47.974;21.722;2023-02-04T05:59:15;23.33;;;11.00;;
71298;SDS011;59083;47.974;21.722;2023-02-04T06:02:16;20.62;;;9.95;;
71298;SDS011;59083;47.974;21.722;2023-02-04T06:05:17;20.15;;;9.98;;
71298;SDS011;59083;47.974;21.722;2023-02-04T06:08:18;22.53;;;10.53;;
71298;SDS011;59083;47.974;21.722;2023-02-04T06:11:20;21.23;;;10.23;;
71298;SDS011;59083;47.974;21.722;2023-02-04T06:14:21;21.12;;;9.43;;
71298;SDS011;59083;47.974;21.722;2023-02-04T06:17:23;21.95;;;9.50;;
71298;SDS011;59083;47.974;21.722;2023-02-04T06:20:24;20.42;;;9.05;;
71298;SDS011;59083;47.974;21.722;2023-02-04T06:23:26;20.80;;;9.60;;
71298;SDS011;59083;47.974;21.722;2023-02-04T06:26:27;20.90;;;9.43;;
71298;SDS011;59083;47.974;21.722;2023-02-04T06:29:28;21.83;;;9.60;;
71298;SDS011;59083;47.974;21.722;2023-02-04T06:32:29;20.60;;;9.70;;
71298;SDS011;59083;47.974;21.722;2023-02-04T06:35:30;23.42;;;10.55;;
71298;SDS011;59083;47.974;21.722;2023-02-04T06:38:31;22.77;;;9.73;;
71298;SDS011;59083;47.974;21.722;2023-02-04T06:41:33;21.53;;;10.70;;
71298;SDS011;59083;47.974;21.722;2023-02-04T06:44:34;19.15;;;9.15;;
71298;SDS011;59083;47.974;21.722;2023-02-04T06:47:35;23.85;;;11.18;;
71298;SDS011;59083;47.974;21.722;2023-02-04T06:50:36;20.77;;;9.73;;
71298;SDS011;59083;47.974;21.722;2023-02-04T06:53:38;21.73;;;9.17;;
71298;SDS011;59083;47.974;21.722;2023-02-04T06:56:40;20.23;;;10.07;;
71298;SDS011;59083;47.974;21.722;2023-02-04T06:59:43;21.25;;;9.40;;
71298;SDS011;59083;47.974;21.722;2023-02-04T07:02:44;21.30;;;10.10;;
71298;SDS011;59083;47.974;21.722;2023-02-04T07:05:46;23.15;;;10.55;;
71298;SDS011;59083;47.974;21.722;2023-02-04T07:08:47;24.83;;;10.67;;
71298;SDS011;59083;47.974;21.722;2023-02-04T07:11:49;21.67;;;10.80;;
71298;SDS011;59083;47.974;21.722;2023-02-04T07:14:50;21.15;;;10.25;;
71298;SDS011;59083;47.974;21.722;2023-02-04T07:17:51;25.60;;;11.20;;
71298;SDS011;59083;47.974;21.722;2023-02-04T07:20:53;23.27;;;10.70;;
71298;SDS011;59083;47.974;21.722;2023-02-04T07:23:55;22.63;;;10.43;;
71298;SDS011;59083;47.974;21.722;2023-02-04T07:26:56;21.50;;;10.77;;
71298;SDS011;59083;47.974;21.722;2023-02-04T07:29:57;23.50;;;11.20;;
71298;SDS011;59083;47.974;21.722;2023-02-04T07:32:58;24.80;;;10.35;;
71298;SDS011;59083;47.974;21.722;2023-02-04T07:35:59;23.85;;;10.60;;
71298;SDS011;59083;47.974;21.722;2023-02-04T07:39:01;21.20;;;9.90;;
71298;SDS011;59083;47.974;21.722;2023-02-04T07:42:02;22.73;;;9.50;;
71298;SDS011;59083;47.974;21.722;2023-02-04T07:45:05;22.27;;;10.73;;
71298;SDS011;59083;47.974;21.722;2023-02-04T07:48:07;24.85;;;10.13;;
71298;SDS011;59083;47.974;21.722;2023-02-04T07:51:10;28.05;;;13.30;;
71298;SDS011;59083;47.974;21.722;2023-02-04T07:54:11;22.63;;;11.47;;
71298;SDS011;59083;47.974;21.722;2023-02-04T07:57:12;24.90;;;11.63;;
71298;SDS011;59083;47.974;21.722;2023-02-04T08:00:14;28.75;;;13.57;;
71298;SDS011;59083;47.974;21.722;2023-02-04T08:03:16;29.95;;;12.95;;
71298;SDS011;59083;47.974;21.722;2023-02-04T08:06:17;25.85;;;12.60;;
71298;SDS011;59083;47.974;21.722;2023-02-04T08:09:19;30.87;;;13.53;;
71298;SDS011;59083;47.974;21.722;2023-02-04T08:12:20;37.20;;;17.23;;
71298;SDS011;59083;47.974;21.722;2023-02-04T08:15:21;40.75;;;18.52;;
71298;SDS011;59083;47.974;21.722;2023-02-04T08:18:22;31.45;;;15.98;;
71298;SDS011;59083;47.974;21.722;2023-02-04T08:21:25;32.60;;;15.60;;
71298;SDS011;59083;47.974;21.722;2023-02-04T08:24:26;31.50;;;14.53;;
71298;SDS011;59083;47.974;21.722;2023-02-04T08:27:27;29.37;;;14.57;;
71298;SDS011;59083;47.974;21.722;2023-02-04T08:30:28;29.60;;;14.18;;
71298;SDS011;59083;47.974;21.722;2023-02-04T08:33:29;37.53;;;17.62;;
71298;SDS011;59083;47.974;21.722;2023-02-04T08:36:31;38.30;;;16.27;;
71298;SDS011;59083;47.974;21.722;2023-02-04T08:39:33;31.53;;;14.87;;
71298;SDS011;59083;47.974;21.722;2023-02-04T08:42:34;36.20;;;15.53;;
71298;SDS011;59083;47.974;21.722;2023-02-04T08:45:35;37.00;;;17.27;;
71298;SDS011;59083;47.974;21.722;2023-02-04T08:48:36;38.80;;;15.70;;
71298;SDS011;59083;47.974;21.722;2023-02-04T08:51:37;37.95;;;16.17;;
71298;SDS011;59083;47.974;21.722;2023-02-04T08:54:38;34.57;;;14.83;;
71298;SDS011;59083;47.974;21.722;2023-02-04T08:57:40;26.90;;;12.03;;
71298;SDS011;59083;47.974;21.722;2023-02-04T09:00:41;24.80;;;10.55;;
71298;SDS011;59083;47.974;21.722;2023-02-04T09:03:42;20.80;;;8.35;;
71298;SDS011;59083;47.974;21.722;2023-02-04T09:06:44;24.40;;;10.13;;
71298;SDS011;59083;47.974;21.722;2023-02-04T09:09:46;20.77;;;8.40;;
71298;SDS011;59083;47.974;21.722;2023-02-04T09:12:47;15.77;;;6.87;;
71298;SDS011;59083;47.974;21.722;2023-02-04T09:15:48;11.52;;;5.43;;
71298;SDS011;59083;47.974;21.722;2023-02-04T09:18:49;10.55;;;4.82;;
71298;SDS011;59083;47.974;21.722;2023-02-04T09:21:51;8.25;;;3.85;;
71298;SDS011;59083;47.974;21.722;2023-02-04T09:24:53;6.73;;;3.40;;
71298;SDS011;59083;47.974;21.722;2023-02-04T09:27:54;9.20;;;4.10;;
71298;SDS011;59083;47.974;21.722;2023-02-04T09:30:55;7.72;;;3.05;;
71298;SDS011;59083;47.974;21.722;2023-02-04T09:33:57;6.40;;;2.95;;
71298;SDS011;59083;47.974;21.722;2023-02-04T09:36:59;6.70;;;2.97;;
71298;SDS011;59083;47.974;21.722;2023-02-04T09:40:01;5.97;;;2.43;;
71298;SDS011;59083;47.974;21.722;2023-02-04T09:43:02;6.10;;;2.57;;
71298;SDS011;59083;47.974;21.722;2023-02-04T09:46:06;5.00;;;2.42;;
71298;SDS011;59083;47.974;21.722;2023-02-04T09:49:18;5.18;;;2.20;;
71298;SDS011;59083;47.974;21.722;2023-02-04T09:52:19;5.05;;;2.15;;
71298;SDS011;59083;47.974;21.722;2023-02-04T09:55:21;5.00;;;2.03;;
71298;SDS011;59083;47.974;21.722;2023-02-04T09:58:30;5.10;;;2.20;;
71298;SDS011;59083;47.974;21.722;2023-02-04T10:01:33;5.37;;;2.35;;
71298;SDS011;59083;47.974;21.722;2023-02-04T10:04:35;5.32;;;2.40;;
71298;SDS011;59083;47.974;21.722;2023-02-04T10:07:36;4.32;;;1.90;;
71298;SDS011;59083;47.974;21.722;2023-02-04T10:10:38;5.67;;;2.57;;
71298;SDS011;59083;47.974;21.722;2023-02-04T10:13:41;4.23;;;1.97;;
71298;SDS011;59083;47.974;21.722;2023-02-04T10:16:52;8.27;;;2.95;;
71298;SDS011;59083;47.974;21.722;2023-02-04T10:19:55;5.22;;;2.20;;
71298;SDS011;59083;47.974;21.722;2023-02-04T10:22:57;4.97;;;2.05;;
71298;SDS011;59083;47.974;21.722;2023-02-04T10:25:58;5.47;;;2.30;;
71298;SDS011;59083;47.974;21.722;2023-02-04T10:29:12;5.27;;;2.20;;
71298;SDS011;59083;47.974;21.722;2023-02-04T10:32:31;4.00;;;1.80;;
71298;SDS011;59083;47.974;21.722;2023-02-04T10:35:42;6.95;;;2.30;;
71298;SDS011;59083;47.974;21.722;2023-02-04T10:38:57;5.15;;;2.20;;
71298;SDS011;59083;47.974;21.722;2023-02-04T10:41:59;5.07;;;2.00;;
71298;SDS011;59083;47.974;21.722;2023-02-04T10:45:01;4.97;;;2.33;;
71298;SDS011;59083;47.974;21.722;2023-02-04T10:48:03;4.35;;;1.70;;
71298;SDS011;59083;47.974;21.722;2023-02-04T10:51:04;5.30;;;2.10;;
71298;SDS011;59083;47.974;21.722;2023-02-04T10:54:07;3.83;;;1.60;;
71298;SDS011;59083;47.974;21.722;2023-02-04T10:57:31;4.43;;;1.93;;
71298;SDS011;59083;47.974;21.722;2023-02-04T11:00:38;3.37;;;1.70;;
71298;SDS011;59083;47.974;21.722;2023-02-04T11:03:40;2.83;;;1.58;;
71298;SDS011;59083;47.974;21.722;2023-02-04T11:06:42;3.90;;;1.77;;
71298;SDS011;59083;47.974;21.722;2023-02-04T11:09:43;3.55;;;1.70;;
71298;SDS011;59083;47.974;21.722;2023-02-04T11:12:46;5.37;;;2.07;;
71298;SDS011;59083;47.974;21.722;2023-02-04T11:16:08;6.37;;;2.03;;
71298;SDS011;59083;47.974;21.722;2023-02-04T11:19:10;3.70;;;1.58;;
71298;SDS011;59083;47.974;21.722;2023-02-04T11:22:21;4.93;;;2.20;;
71298;SDS011;59083;47.974;21.722;2023-02-04T11:25:43;7.37;;;2.87;;
71298;SDS011;59083;47.974;21.722;2023-02-04T11:28:46;4.63;;;2.13;;
71298;SDS011;59083;47.974;21.722;2023-02-04T11:34:50;4.43;;;1.87;;
71298;SDS011;59083;47.974;21.722;2023-02-04T11:37:53;4.70;;;1.92;;
71298;SDS011;59083;47.974;21.722;2023-02-04T11:40:57;5.50;;;2.22;;
71298;SDS011;59083;47.974;21.722;2023-02-04T11:44:00;4.30;;;2.00;;
71298;SDS011;59083;47.974;21.722;2023-02-04T11:47:01;7.87;;;2.62;;
71298;SDS011;59083;47.974;21.722;2023-02-04T11:50:25;4.53;;;1.87;;
71298;SDS011;59083;47.974;21.722;2023-02-04T11:53:31;4.65;;;1.75;;
71298;SDS011;59083;47.974;21.722;2023-02-04T11:56:34;6.25;;;2.17;;
71298;SDS011;59083;47.974;21.722;2023-02-04T11:59:35;4.90;;;2.20;;
71298;SDS011;59083;47.974;21.722;2023-02-04T12:02:41;5.95;;;2.20;;
71298;SDS011;59083;47.974;21.722;2023-02-04T12:05:45;4.70;;;1.98;;
71298;SDS011;59083;47.974;21.722;2023-02-04T12:08:49;4.12;;;2.00;;
71298;SDS011;59083;47.974;21.722;2023-02-04T12:11:51;3.92;;;1.52;;
71298;SDS011;59083;47.974;21.722;2023-02-04T12:14:57;4.87;;;1.80;;
71298;SDS011;59083;47.974;21.722;2023-02-04T12:18:05;6.12;;;2.22;;
71298;SDS011;59083;47.974;21.722;2023-02-04T12:21:07;6.35;;;2.92;;
71298;SDS011;59083;47.974;21.722;2023-02-04T12:24:09;6.40;;;2.53;;
71298;SDS011;59083;47.974;21.722;2023-02-04T12:27:10;4.97;;;2.20;;
71298;SDS011;59083;47.974;21.722;2023-02-04T12:30:11;5.90;;;2.00;;
71298;SDS011;59083;47.974;21.722;2023-02-04T12:33:13;6.45;;;2.08;;
71298;SDS011;59083;47.974;21.722;2023-02-04T12:36:14;5.65;;;2.20;;
71298;SDS011;59083;47.974;21.722;2023-02-04T12:39:15;4.62;;;2.00;;
71298;SDS011;59083;47.974;21.722;2023-02-04T12:42:17;7.22;;;2.53;;
71298;SDS011;59083;47.974;21.722;2023-02-04T12:45:18;5.37;;;2.33;;
71298;SDS011;59083;47.974;21.722;2023-02-04T12:48:19;5.35;;;2.10;;
71298;SDS011;59083;47.974;21.722;2023-02-04T12:51:20;6.87;;;2.50;;
71298;SDS011;59083;47.974;21.722;2023-02-04T12:54:22;6.12;;;2.53;;
71298;SDS011;59083;47.974;21.722;2023-02-04T12:57:23;5.05;;;2.08;;
71298;SDS011;59083;47.974;21.722;2023-02-04T13:00:25;4.93;;;2.00;;
71298;SDS011;59083;47.974;21.722;2023-02-04T13:03:27;5.50;;;2.08;;
71298;SDS011;59083;47.974;21.722;2023-02-04T13:06:28;5.57;;;2.53;;
71298;SDS011;59083;47.974;21.722;2023-02-04T13:09:30;4.18;;;1.92;;
71298;SDS011;59083;47.974;21.722;2023-02-04T13:12:31;5.57;;;2.03;;
71298;SDS011;59083;47.974;21.722;2023-02-04T13:15:32;6.30;;;2.40;;
71298;SDS011;59083;47.974;21.722;2023-02-04T13:18:33;5.68;;;2.50;;
71298;SDS011;59083;47.974;21.722;2023-02-04T13:21:35;5.50;;;2.10;;
71298;SDS011;59083;47.974;21.722;2023-02-04T13:24:36;5.22;;;1.85;;
71298;SDS011;59083;47.974;21.722;2023-02-04T13:27:37;5.22;;;2.22;;
71298;SDS011;59083;47.974;21.722;2023-02-04T13:30:39;7.40;;;2.20;;
71298;SDS011;59083;47.974;21.722;2023-02-04T13:33:40;5.40;;;2.15;;
71298;SDS011;59083;47.974;21.722;2023-02-04T13:36:41;5.65;;;2.50;;
71298;SDS011;59083;47.974;21.722;2023-02-04T13:39:43;5.25;;;2.03;;
71298;SDS011;59083;47.974;21.722;2023-02-04T13:42:44;6.60;;;2.30;;
71298;SDS011;59083;47.974;21.722;2023-02-04T13:45:45;4.83;;;2.23;;
71298;SDS011;59083;47.974;21.722;2023-02-04T13:48:48;4.30;;;1.83;;
71298;SDS011;59083;47.974;21.722;2023-02-04T13:51:52;4.45;;;1.90;;
71298;SDS011;59083;47.974;21.722;2023-02-04T13:54:53;3.95;;;1.83;;
71298;SDS011;59083;47.974;21.722;2023-02-04T13:57:55;6.60;;;2.70;;
71298;SDS011;59083;47.974;21.722;2023-02-04T14:00:56;6.43;;;2.70;;
71298;SDS011;59083;47.974;21.722;2023-02-04T14:03:58;6.87;;;2.20;;
71298;SDS011;59083;47.974;21.722;2023-02-04T14:06:59;5.37;;;2.40;;
71298;SDS011;59083;47.974;21.722;2023-02-04T14:10:00;6.07;;;2.35;;
71298;SDS011;59083;47.974;21.722;2023-02-04T14:13:01;7.15;;;2.95;;
71298;SDS011;59083;47.974;21.722;2023-02-04T14:16:02;6.07;;;2.30;;
71298;SDS011;59083;47.974;21.722;2023-02-04T14:19:05;5.62;;;2.28;;
71298;SDS011;59083;47.974;21.722;2023-02-04T14:22:07;5.90;;;2.15;;
71298;SDS011;59083;47.974;21.722;2023-02-04T14:25:10;5.10;;;1.90;;
71298;SDS011;59083;47.974;21.722;2023-02-04T14:28:12;5.30;;;1.95;;
71298;SDS011;59083;47.974;21.722;2023-02-04T14:31:13;5.20;;;2.07;;
71298;SDS011;59083;47.974;21.722;2023-02-04T14:34:14;4.97;;;1.98;;
71298;SDS011;59083;47.974;21.722;2023-02-04T14:37:15;5.62;;;1.90;;
71298;SDS011;59083;47.974;21.722;2023-02-04T14:40:17;4.62;;;1.77;;
71298;SDS011;59083;47.974;21.722;2023-02-04T14:43:19;5.12;;;1.70;;
71298;SDS011;59083;47.974;21.722;2023-02-04T14:46:20;5.23;;;2.17;;
71298;SDS011;59083;47.974;21.722;2023-02-04T14:49:22;4.55;;;1.98;;
71298;SDS011;59083;47.974;21.722;2023-02-04T14:52:23;6.15;;;2.40;;
71298;SDS011;59083;47.974;21.722;2023-02-04T14:55:24;5.18;;;2.20;;
71298;SDS011;59083;47.974;21.722;2023-02-04T14:58:27;4.05;;;1.73;;
71298;SDS011;59083;47.974;21.722;2023-02-04T15:01:28;6.50;;;2.23;;
71298;SDS011;59083;47.974;21.722;2023-02-04T15:04:30;5.25;;;2.00;;
71298;SDS011;59083;47.974;21.722;2023-02-04T15:07:31;5.55;;;1.98;;
71298;SDS011;59083;47.974;21.722;2023-02-04T15:10:33;6.95;;;2.08;;
71298;SDS011;59083;47.974;21.722;2023-02-04T15:13:34;4.25;;;1.92;;
71298;SDS011;59083;47.974;21.722;2023-02-04T15:16:35;5.37;;;2.10;;
71298;SDS011;59083;47.974;21.722;2023-02-04T15:19:37;5.28;;;1.87;;
71298;SDS011;59083;47.974;21.722;2023-02-04T15:22:38;5.78;;;1.92;;
71298;SDS011;59083;47.974;21.722;2023-02-04T15:25:39;4.37;;;1.77;;
71298;SDS011;59083;47.974;21.722;2023-02-04T15:28:41;4.95;;;2.40;;
71298;SDS011;59083;47.974;21.722;2023-02-04T15:31:42;5.20;;;2.30;;
71298;SDS011;59083;47.974;21.722;2023-02-04T15:34:43;5.62;;;2.17;;
71298;SDS011;59083;47.974;21.722;2023-02-04T15:37:44;8.77;;;2.70;;
71298;SDS011;59083;47.974;21.722;2023-02-04T15:40:45;7.57;;;2.97;;
71298;SDS011;59083;47.974;21.722;2023-02-04T15:43:47;7.60;;;2.37;;
71298;SDS011;59083;47.974;21.722;2023-02-04T15:46:48;6.87;;;2.40;;
71298;SDS011;59083;47.974;21.722;2023-02-04T15:49:49;8.43;;;3.25;;
71298;SDS011;59083;47.974;21.722;2023-02-04T15:52:51;5.03;;;1.95;;
71298;SDS011;59083;47.974;21.722;2023-02-04T15:55:52;5.40;;;2.40;;
71298;SDS011;59083;47.974;21.722;2023-02-04T15:58:53;6.18;;;2.37;;
71298;SDS011;59083;47.974;21.722;2023-02-04T16:01:56;8.70;;;2.83;;
71298;SDS011;59083;47.974;21.722;2023-02-04T16:04:57;6.10;;;1.87;;
71298;SDS011;59083;47.974;21.722;2023-02-04T16:07:58;6.35;;;2.50;;
71298;SDS011;59083;47.974;21.722;2023-02-04T16:10:59;4.55;;;2.10;;
71298;SDS011;59083;47.974;21.722;2023-02-04T16:14:00;5.78;;;2.50;;
71298;SDS011;59083;47.974;21.722;2023-02-04T16:17:02;6.83;;;2.90;;
71298;SDS011;59083;47.974;21.722;2023-02-04T16:20:04;5.95;;;2.30;;
71298;SDS011;59083;47.974;21.722;2023-02-04T16:23:06;5.72;;;2.55;;
71298;SDS011;59083;47.974;21.722;2023-02-04T16:26:07;5.75;;;2.00;;
71298;SDS011;59083;47.974;21.722;2023-02-04T16:29:09;6.53;;;2.58;;
71298;SDS011;59083;47.974;21.722;2023-02-04T16:32:10;6.67;;;2.80;;
71298;SDS011;59083;47.974;21.722;2023-02-04T16:35:11;7.32;;;3.12;;
71298;SDS011;59083;47.974;21.722;2023-02-04T16:38:14;5.90;;;2.28;;
71298;SDS011;59083;47.974;21.722;2023-02-04T16:41:18;6.22;;;2.60;;
71298;SDS011;59083;47.974;21.722;2023-02-04T16:44:19;6.65;;;2.10;;
71298;SDS011;59083;47.974;21.722;2023-02-04T16:47:20;8.03;;;3.27;;
71298;SDS011;59083;47.974;21.722;2023-02-04T16:50:21;6.55;;;2.80;;
71298;SDS011;59083;47.974;21.722;2023-02-04T16:53:24;8.13;;;3.47;;
71298;SDS011;59083;47.974;21.722;2023-02-04T16:56:25;7.07;;;2.75;;
71298;SDS011;59083;47.974;21.722;2023-02-04T16:59:34;7.37;;;2.78;;
71298;SDS011;59083;47.974;21.722;2023-02-04T17:02:37;5.73;;;2.40;;
71298;SDS011;59083;47.974;21.722;2023-02-04T17:05:39;6.55;;;2.87;;
71298;SDS011;59083;47.974;21.722;2023-02-04T17:08:41;6.15;;;2.70;;
71298;SDS011;59083;47.974;21.722;2023-02-04T17:11:43;7.65;;;2.70;;
71298;SDS011;59083;47.974;21.722;2023-02-04T17:14:44;6.37;;;2.28;;
71298;SDS011;59083;47.974;21.722;2023-02-04T17:17:46;6.90;;;2.43;;
71298;SDS011;59083;47.974;21.722;2023-02-04T17:20:47;6.47;;;2.80;;
71298;SDS011;59083;47.974;21.722;2023-02-04T17:23:49;4.70;;;1.80;;
71298;SDS011;59083;47.974;21.722;2023-02-04T17:26:50;6.43;;;2.72;;
71298;SDS011;59083;47.974;21.722;2023-02-04T17:29:51;6.75;;;2.50;;
71298;SDS011;59083;47.974;21.722;2023-02-04T17:32:52;8.10;;;3.20;;
71298;SDS011;59083;47.974;21.722;2023-02-04T17:35:54;7.50;;;3.08;;
71298;SDS011;59083;47.974;21.722;2023-02-04T17:38:55;6.80;;;3.03;;
71298;SDS011;59083;47.974;21.722;2023-02-04T17:41:57;5.62;;;2.35;;
71298;SDS011;59083;47.974;21.722;2023-02-04T17:44:58;6.30;;;2.70;;
71298;SDS011;59083;47.974;21.722;2023-02-04T17:47:59;6.30;;;2.57;;
71298;SDS011;59083;47.974;21.722;2023-02-04T17:51:00;6.95;;;2.42;;